Aérodrome :
LOGIN :

S'inscrire | Disclaimer

   EN    FR    IT 

 










Légende :    VFR   VFR Marginal   IFR   IFR Intensif   IFR Très Intensif
Visi : 
Plafond : 
>= 8 km
>= 3000ft
5 à 8 km
1000 à 3000 ft
1500m à 5 km
500 à 1000 ft
800 à 1500m
200 à 500 ft
< 800m
< 200 ft
Symboles :   Orages  Brouillard  Fortes neiges  Fortes précipitations  Vent > 20 kt
SIGMETs :   Divers  Orages  Givrage  Turbulence  Onde Orograph.  Cendres Volcan.






- Altitude de l'aérodrome : 38 ft
- Code IATA : BOH


EGHH - Bournemouth

DERNIER METAR :
  • 211550Z VRB03KT 9999 SCT023 BKN032 15/11 Q1009

METARs EXPIRÉS :
  • 211520Z 16004KT 120V230 9999 FEW021 SCT029 15/11 Q1009
  • 211450Z 16005KT 120V230 9999 FEW021 SCT029 15/11 Q1009
  • 211420Z 16004KT 9999 FEW024 SCT029 16/12 Q1009
  • 211350Z 17004KT 9999 FEW024 SCT029 16/11 Q1009
  • 211320Z VRB03KT 9999 FEW022 SCT025 15/11 Q1009
  • 211250Z 16004KT 120V200 9999 FEW022 SCT025 16/11 Q1009
  • 211220Z 05004KT 360V090 9999 FEW025 SCT036 17/11 Q1009
  • 211150Z 02005KT 340V070 9999 SCT027 17/11 Q1010
  • 211120Z 36004KT 300V060 9999 SCT031 18/11 Q1009

TAF TAF EGHH
Valide du 21 à 15h jusqu'au 22 à 00h UTC


211401Z 2115/2124 04004KT 9999 SCT030
TEMPO 2115/2121 6000 SHRA
PROB30
TEMPO 2115/2121 4000 +SHRA BKN014
PROB30
TEMPO 2121/2124 6000 RA BKN014
ATIS : +44 1202 364 151
Météo : +44 1202 364 158 (TAF)



MET'MAP, la Météo Aéronautique d'un coup d'oeil ! - Copyright ORBIFLY Décembre 2007 - Disclaimer

ORBIFLY MET'MAP TEAM :

Programmation & Développement : Alexandra Zaïnal
Sur une idée originale de : Baudouin d'Aumeries
Soutien technique & logistique : Manuel Goepfert
Assistance : Marc-Olivier Méhu




SOURCES & CREDITS :

   NOAA